メインページ
METAR-TAF:

METAR-TAF

空港 :

スタンリー, フォークランド諸島

マウント・プレザント空軍基地

緯度: 51-49S, 経度: 058-27W, 海抜: 74m

現時点の気象観測

当レポートは25分前の05:50(UTC)に作成
の風 12kt
気温 9°C
湿度 100%
気圧 1023 hPa
視程10km以上
高度300ftの雲は散在している
高度2000ftの雲は散在している

METAR: EGYP 280550Z 36012KT 9999 SCT003 SCT020 09/09 Q1023 YLO2

時間: 03:15 (06:15 UTC)

予報

当レポートは1時間35分前の04:40(UTC)に作成
予報は28日の 06時(UTC)から 28日の 24時(UTC)まで有効
北/北東の風 15kt
視程10km以上
高度500ftの雲はほとんどない
高度800ftの千切れ雲あり
28日の 06時(UTC)から 28日の 09時(UTC)まで徐々に
北/北西の風 10kt
28日の 06時(UTC)から 28日の 15時(UTC)まで一時的に
視程: 4000m
高度400ftの千切れ雲あり
雨, 霧雨
確率 40% :
28日の 06時(UTC)から 28日の 13時(UTC)まで一時的に
視程: 1000m
高度200ftの千切れ雲あり
28日の 15時(UTC)から 28日の 18時(UTC)まで徐々に
高度1500ftの雲は散在している
確率 40% :
28日の 15時(UTC)から 28日の 22時(UTC)まで一時的に
視程: 7000m
高度500ftの千切れ雲あり
小霧雨
28日の 21時(UTC)から 28日の 24時(UTC)まで徐々に
高度800ftの千切れ雲あり

TAF: EGYP 280440Z 2806/2824 03015KT 9999 FEW005 BKN008 BECMG 2806/2809 33010KT TEMPO 2806/2815 4000 RADZ BKN004 PROB40 TEMPO 2806/2813 1000 BR BKN002 BECMG 2815/2818 SCT015 PROB40 TEMPO 2815/2822 7000 -DZ BKN005 BECMG 2821/2824 BKN008 TEMPO 2822/2824 7000 -DZ BKN004

4,000以上の空港の気象観測と天気予報(METAR報とTAF報)

利用可能な観測所は地図上に黄色い丸と赤い丸で示す。

丸の上にカーソルを重ねると観測所名を参照できる。

次にクリックすると気象観測と天気予報を参照できる。

マップの切り替え:黒色「×」印の緑ボタンをクリックして拡大、「-」印の緑ボタンをクリックして縮小、緑色の三角印をクリックして隣りの地図に切り替え


METAR-TAF: